sensor_id;sensor_type;location;lat;lon;timestamp;P1;durP1;ratioP1;P2;durP2;ratioP2
16127;SDS011;8168;49.036;7.690;2023-04-08T00:00:30;2.30;;;2.00;;
16127;SDS011;8168;49.036;7.690;2023-04-08T00:03:01;2.40;;;1.73;;
16127;SDS011;8168;49.036;7.690;2023-04-08T00:05:32;2.70;;;2.00;;
16127;SDS011;8168;49.036;7.690;2023-04-08T00:08:04;2.17;;;1.70;;
16127;SDS011;8168;49.036;7.690;2023-04-08T00:10:35;2.27;;;2.03;;
16127;SDS011;8168;49.036;7.690;2023-04-08T00:13:06;4.10;;;2.10;;
16127;SDS011;8168;49.036;7.690;2023-04-08T00:15:36;4.07;;;2.90;;
16127;SDS011;8168;49.036;7.690;2023-04-08T00:18:07;5.00;;;2.63;;
16127;SDS011;8168;49.036;7.690;2023-04-08T00:20:37;2.90;;;2.60;;
16127;SDS011;8168;49.036;7.690;2023-04-08T00:23:08;3.10;;;2.80;;
16127;SDS011;8168;49.036;7.690;2023-04-08T00:25:39;6.07;;;3.27;;
16127;SDS011;8168;49.036;7.690;2023-04-08T00:28:10;3.27;;;2.43;;
16127;SDS011;8168;49.036;7.690;2023-04-08T00:30:40;2.50;;;2.10;;
16127;SDS011;8168;49.036;7.690;2023-04-08T00:33:11;4.83;;;2.40;;
16127;SDS011;8168;49.036;7.690;2023-04-08T00:35:41;4.10;;;2.30;;
16127;SDS011;8168;49.036;7.690;2023-04-08T00:38:12;2.73;;;2.30;;
16127;SDS011;8168;49.036;7.690;2023-04-08T00:40:43;3.13;;;2.83;;
16127;SDS011;8168;49.036;7.690;2023-04-08T00:43:13;2.73;;;2.23;;
16127;SDS011;8168;49.036;7.690;2023-04-08T00:45:46;3.10;;;2.20;;
16127;SDS011;8168;49.036;7.690;2023-04-08T00:48:17;2.30;;;2.10;;
16127;SDS011;8168;49.036;7.690;2023-04-08T00:50:48;3.43;;;2.60;;
16127;SDS011;8168;49.036;7.690;2023-04-08T00:53:18;2.70;;;2.20;;
16127;SDS011;8168;49.036;7.690;2023-04-08T00:55:49;3.47;;;2.47;;
16127;SDS011;8168;49.036;7.690;2023-04-08T00:58:20;5.03;;;2.40;;
16127;SDS011;8168;49.036;7.690;2023-04-08T01:00:57;3.07;;;2.00;;
16127;SDS011;8168;49.036;7.690;2023-04-08T01:06:39;2.90;;;2.60;;
16127;SDS011;8168;49.036;7.690;2023-04-08T01:09:24;3.57;;;2.53;;
16127;SDS011;8168;49.036;7.690;2023-04-08T01:11:58;6.10;;;2.67;;
16127;SDS011;8168;49.036;7.690;2023-04-08T01:14:34;3.20;;;2.57;;
16127;SDS011;8168;49.036;7.690;2023-04-08T01:17:08;2.97;;;2.23;;
16127;SDS011;8168;49.036;7.690;2023-04-08T01:19:39;3.47;;;2.77;;
16127;SDS011;8168;49.036;7.690;2023-04-08T01:25:33;3.67;;;2.63;;
16127;SDS011;8168;49.036;7.690;2023-04-08T01:28:10;4.53;;;2.50;;
16127;SDS011;8168;49.036;7.690;2023-04-08T01:30:42;3.37;;;2.83;;
16127;SDS011;8168;49.036;7.690;2023-04-08T01:33:16;3.87;;;2.20;;
16127;SDS011;8168;49.036;7.690;2023-04-08T01:35:48;2.80;;;2.50;;
16127;SDS011;8168;49.036;7.690;2023-04-08T01:38:24;3.33;;;2.50;;
16127;SDS011;8168;49.036;7.690;2023-04-08T01:40:56;4.80;;;2.33;;
16127;SDS011;8168;49.036;7.690;2023-04-08T01:43:26;4.90;;;2.20;;
16127;SDS011;8168;49.036;7.690;2023-04-08T01:45:58;4.90;;;3.13;;
16127;SDS011;8168;49.036;7.690;2023-04-08T01:48:30;3.27;;;2.60;;
16127;SDS011;8168;49.036;7.690;2023-04-08T01:51:01;5.97;;;2.20;;
16127;SDS011;8168;49.036;7.690;2023-04-08T01:53:34;2.40;;;2.20;;
16127;SDS011;8168;49.036;7.690;2023-04-08T01:56:06;3.10;;;2.63;;
16127;SDS011;8168;49.036;7.690;2023-04-08T01:58:42;3.10;;;2.30;;
16127;SDS011;8168;49.036;7.690;2023-04-08T02:01:20;3.17;;;2.10;;
16127;SDS011;8168;49.036;7.690;2023-04-08T02:03:54;7.17;;;2.63;;
16127;SDS011;8168;49.036;7.690;2023-04-08T02:06:27;3.03;;;2.40;;
16127;SDS011;8168;49.036;7.690;2023-04-08T02:08:58;3.43;;;2.47;;
16127;SDS011;8168;49.036;7.690;2023-04-08T02:11:30;3.93;;;2.77;;
16127;SDS011;8168;49.036;7.690;2023-04-08T02:14:01;3.37;;;2.40;;
16127;SDS011;8168;49.036;7.690;2023-04-08T02:19:28;4.87;;;2.37;;
16127;SDS011;8168;49.036;7.690;2023-04-08T02:22:04;3.17;;;2.40;;
16127;SDS011;8168;49.036;7.690;2023-04-08T02:24:45;3.23;;;2.30;;
16127;SDS011;8168;49.036;7.690;2023-04-08T02:27:16;2.90;;;2.47;;
16127;SDS011;8168;49.036;7.690;2023-04-08T02:29:48;2.87;;;2.47;;
16127;SDS011;8168;49.036;7.690;2023-04-08T02:32:20;2.57;;;2.10;;
16127;SDS011;8168;49.036;7.690;2023-04-08T02:34:53;4.13;;;2.43;;
16127;SDS011;8168;49.036;7.690;2023-04-08T02:37:26;3.50;;;2.63;;
16127;SDS011;8168;49.036;7.690;2023-04-08T02:39:57;3.23;;;2.20;;
16127;SDS011;8168;49.036;7.690;2023-04-08T02:42:28;2.53;;;2.00;;
16127;SDS011;8168;49.036;7.690;2023-04-08T02:44:58;4.37;;;2.50;;
16127;SDS011;8168;49.036;7.690;2023-04-08T02:47:29;2.30;;;2.00;;
16127;SDS011;8168;49.036;7.690;2023-04-08T02:50:00;2.60;;;2.17;;
16127;SDS011;8168;49.036;7.690;2023-04-08T02:52:30;6.90;;;2.30;;
16127;SDS011;8168;49.036;7.690;2023-04-08T02:55:01;2.90;;;2.20;;
16127;SDS011;8168;49.036;7.690;2023-04-08T02:57:32;3.70;;;2.00;;
16127;SDS011;8168;49.036;7.690;2023-04-08T03:00:03;2.00;;;1.80;;
16127;SDS011;8168;49.036;7.690;2023-04-08T03:02:34;6.00;;;2.43;;
16127;SDS011;8168;49.036;7.690;2023-04-08T03:05:05;3.13;;;2.10;;
16127;SDS011;8168;49.036;7.690;2023-04-08T03:07:36;3.43;;;2.23;;
16127;SDS011;8168;49.036;7.690;2023-04-08T03:10:07;3.93;;;2.70;;
16127;SDS011;8168;49.036;7.690;2023-04-08T03:12:38;2.53;;;2.17;;
16127;SDS011;8168;49.036;7.690;2023-04-08T03:15:08;2.50;;;2.13;;
16127;SDS011;8168;49.036;7.690;2023-04-08T03:17:39;2.80;;;2.23;;
16127;SDS011;8168;49.036;7.690;2023-04-08T03:20:10;5.83;;;2.77;;
16127;SDS011;8168;49.036;7.690;2023-04-08T03:22:41;2.67;;;2.20;;
16127;SDS011;8168;49.036;7.690;2023-04-08T03:25:11;2.50;;;2.30;;
16127;SDS011;8168;49.036;7.690;2023-04-08T03:27:42;4.57;;;2.83;;
16127;SDS011;8168;49.036;7.690;2023-04-08T03:30:12;2.70;;;2.37;;
16127;SDS011;8168;49.036;7.690;2023-04-08T03:32:43;2.30;;;2.10;;
16127;SDS011;8168;49.036;7.690;2023-04-08T03:35:14;3.37;;;2.27;;
16127;SDS011;8168;49.036;7.690;2023-04-08T03:37:45;3.53;;;2.23;;
16127;SDS011;8168;49.036;7.690;2023-04-08T03:40:15;4.00;;;2.80;;
16127;SDS011;8168;49.036;7.690;2023-04-08T03:42:46;3.90;;;2.60;;
16127;SDS011;8168;49.036;7.690;2023-04-08T03:45:17;3.60;;;2.20;;
16127;SDS011;8168;49.036;7.690;2023-04-08T03:47:47;4.27;;;2.50;;
16127;SDS011;8168;49.036;7.690;2023-04-08T03:50:18;3.47;;;2.43;;
16127;SDS011;8168;49.036;7.690;2023-04-08T03:52:49;2.80;;;2.20;;
16127;SDS011;8168;49.036;7.690;2023-04-08T03:55:19;5.47;;;2.67;;
16127;SDS011;8168;49.036;7.690;2023-04-08T03:57:50;5.43;;;2.40;;
16127;SDS011;8168;49.036;7.690;2023-04-08T04:00:20;3.23;;;2.90;;
16127;SDS011;8168;49.036;7.690;2023-04-08T04:02:51;3.37;;;2.57;;
16127;SDS011;8168;49.036;7.690;2023-04-08T04:05:22;2.70;;;2.50;;
16127;SDS011;8168;49.036;7.690;2023-04-08T04:07:53;2.47;;;2.23;;
16127;SDS011;8168;49.036;7.690;2023-04-08T04:10:23;3.57;;;2.70;;
16127;SDS011;8168;49.036;7.690;2023-04-08T04:12:54;3.83;;;2.40;;
16127;SDS011;8168;49.036;7.690;2023-04-08T04:15:25;4.30;;;2.53;;
16127;SDS011;8168;49.036;7.690;2023-04-08T04:17:55;2.87;;;2.37;;
16127;SDS011;8168;49.036;7.690;2023-04-08T04:20:26;3.80;;;2.20;;
16127;SDS011;8168;49.036;7.690;2023-04-08T04:22:59;5.00;;;2.67;;
16127;SDS011;8168;49.036;7.690;2023-04-08T04:25:29;2.87;;;2.33;;
16127;SDS011;8168;49.036;7.690;2023-04-08T04:28:00;5.60;;;2.90;;
16127;SDS011;8168;49.036;7.690;2023-04-08T04:30:32;5.53;;;2.90;;
16127;SDS011;8168;49.036;7.690;2023-04-08T04:33:03;3.33;;;2.40;;
16127;SDS011;8168;49.036;7.690;2023-04-08T04:35:34;3.23;;;2.70;;
16127;SDS011;8168;49.036;7.690;2023-04-08T04:38:04;4.30;;;2.07;;
16127;SDS011;8168;49.036;7.690;2023-04-08T04:40:41;6.83;;;3.00;;
16127;SDS011;8168;49.036;7.690;2023-04-08T04:43:13;3.03;;;2.37;;
16127;SDS011;8168;49.036;7.690;2023-04-08T04:45:43;3.73;;;2.57;;
16127;SDS011;8168;49.036;7.690;2023-04-08T04:48:14;4.33;;;2.80;;
16127;SDS011;8168;49.036;7.690;2023-04-08T04:50:53;4.90;;;3.20;;
16127;SDS011;8168;49.036;7.690;2023-04-08T04:53:28;4.47;;;3.03;;
16127;SDS011;8168;49.036;7.690;2023-04-08T04:55:59;8.67;;;3.20;;
16127;SDS011;8168;49.036;7.690;2023-04-08T04:58:30;4.07;;;3.07;;
16127;SDS011;8168;49.036;7.690;2023-04-08T05:01:01;3.97;;;2.60;;
16127;SDS011;8168;49.036;7.690;2023-04-08T05:03:32;4.07;;;3.10;;
16127;SDS011;8168;49.036;7.690;2023-04-08T05:06:02;4.47;;;3.07;;
16127;SDS011;8168;49.036;7.690;2023-04-08T05:08:33;6.53;;;3.83;;
16127;SDS011;8168;49.036;7.690;2023-04-08T05:11:07;4.63;;;3.47;;
16127;SDS011;8168;49.036;7.690;2023-04-08T05:13:38;8.83;;;4.20;;
16127;SDS011;8168;49.036;7.690;2023-04-08T05:16:09;6.33;;;4.63;;
16127;SDS011;8168;49.036;7.690;2023-04-08T05:18:40;6.30;;;3.77;;
16127;SDS011;8168;49.036;7.690;2023-04-08T05:21:10;7.97;;;4.23;;
16127;SDS011;8168;49.036;7.690;2023-04-08T05:23:41;5.53;;;4.20;;
16127;SDS011;8168;49.036;7.690;2023-04-08T05:26:12;15.30;;;8.70;;
16127;SDS011;8168;49.036;7.690;2023-04-08T05:28:42;12.30;;;7.00;;
16127;SDS011;8168;49.036;7.690;2023-04-08T05:31:16;14.80;;;6.93;;
16127;SDS011;8168;49.036;7.690;2023-04-08T05:33:48;6.13;;;4.07;;
16127;SDS011;8168;49.036;7.690;2023-04-08T05:36:18;7.57;;;4.70;;
16127;SDS011;8168;49.036;7.690;2023-04-08T05:38:49;6.13;;;4.23;;
16127;SDS011;8168;49.036;7.690;2023-04-08T05:41:20;7.17;;;4.27;;
16127;SDS011;8168;49.036;7.690;2023-04-08T05:43:50;7.57;;;4.83;;
16127;SDS011;8168;49.036;7.690;2023-04-08T05:46:21;6.10;;;4.20;;
16127;SDS011;8168;49.036;7.690;2023-04-08T05:48:52;5.77;;;4.40;;
16127;SDS011;8168;49.036;7.690;2023-04-08T05:51:22;6.50;;;4.30;;
16127;SDS011;8168;49.036;7.690;2023-04-08T05:53:53;6.57;;;4.33;;
16127;SDS011;8168;49.036;7.690;2023-04-08T05:56:23;6.37;;;4.20;;
16127;SDS011;8168;49.036;7.690;2023-04-08T05:58:54;6.07;;;4.13;;
16127;SDS011;8168;49.036;7.690;2023-04-08T06:01:25;5.47;;;3.93;;
16127;SDS011;8168;49.036;7.690;2023-04-08T06:03:55;7.93;;;4.93;;
16127;SDS011;8168;49.036;7.690;2023-04-08T06:06:26;6.80;;;4.73;;
16127;SDS011;8168;49.036;7.690;2023-04-08T06:08:57;6.70;;;4.33;;
16127;SDS011;8168;49.036;7.690;2023-04-08T06:11:27;9.07;;;5.50;;
16127;SDS011;8168;49.036;7.690;2023-04-08T06:13:58;8.93;;;5.10;;
16127;SDS011;8168;49.036;7.690;2023-04-08T06:16:28;6.50;;;4.87;;
16127;SDS011;8168;49.036;7.690;2023-04-08T06:18:59;6.07;;;4.20;;
16127;SDS011;8168;49.036;7.690;2023-04-08T06:21:30;6.53;;;4.77;;
16127;SDS011;8168;49.036;7.690;2023-04-08T06:24:00;7.60;;;4.87;;
16127;SDS011;8168;49.036;7.690;2023-04-08T06:26:31;7.87;;;4.33;;
16127;SDS011;8168;49.036;7.690;2023-04-08T06:29:01;8.87;;;5.27;;
16127;SDS011;8168;49.036;7.690;2023-04-08T06:31:33;6.77;;;4.63;;
16127;SDS011;8168;49.036;7.690;2023-04-08T06:34:04;7.30;;;4.57;;
16127;SDS011;8168;49.036;7.690;2023-04-08T06:36:35;5.67;;;4.40;;
16127;SDS011;8168;49.036;7.690;2023-04-08T06:39:05;7.53;;;5.10;;
16127;SDS011;8168;49.036;7.690;2023-04-08T06:41:36;8.13;;;5.67;;
16127;SDS011;8168;49.036;7.690;2023-04-08T06:44:07;18.17;;;11.10;;
16127;SDS011;8168;49.036;7.690;2023-04-08T06:46:37;25.90;;;15.53;;
16127;SDS011;8168;49.036;7.690;2023-04-08T06:49:08;16.73;;;10.30;;
16127;SDS011;8168;49.036;7.690;2023-04-08T06:51:38;13.97;;;9.23;;
16127;SDS011;8168;49.036;7.690;2023-04-08T06:54:09;10.93;;;6.57;;
16127;SDS011;8168;49.036;7.690;2023-04-08T06:56:40;12.63;;;8.60;;
16127;SDS011;8168;49.036;7.690;2023-04-08T06:59:10;14.27;;;8.40;;
16127;SDS011;8168;49.036;7.690;2023-04-08T07:01:41;19.93;;;9.80;;
16127;SDS011;8168;49.036;7.690;2023-04-08T07:04:11;16.80;;;10.00;;
16127;SDS011;8168;49.036;7.690;2023-04-08T07:06:42;13.80;;;9.07;;
16127;SDS011;8168;49.036;7.690;2023-04-08T07:09:12;16.83;;;9.17;;
16127;SDS011;8168;49.036;7.690;2023-04-08T07:11:43;15.07;;;8.70;;
16127;SDS011;8168;49.036;7.690;2023-04-08T07:14:14;20.80;;;10.43;;
16127;SDS011;8168;49.036;7.690;2023-04-08T07:16:44;15.73;;;9.00;;
16127;SDS011;8168;49.036;7.690;2023-04-08T07:19:15;19.13;;;9.40;;
16127;SDS011;8168;49.036;7.690;2023-04-08T07:21:45;14.20;;;8.67;;
16127;SDS011;8168;49.036;7.690;2023-04-08T07:24:17;16.90;;;8.80;;
16127;SDS011;8168;49.036;7.690;2023-04-08T07:26:47;14.63;;;8.23;;
16127;SDS011;8168;49.036;7.690;2023-04-08T07:29:18;17.20;;;8.70;;
16127;SDS011;8168;49.036;7.690;2023-04-08T07:31:49;14.90;;;8.30;;
16127;SDS011;8168;49.036;7.690;2023-04-08T07:34:20;15.60;;;8.73;;
16127;SDS011;8168;49.036;7.690;2023-04-08T07:36:51;15.43;;;8.33;;
16127;SDS011;8168;49.036;7.690;2023-04-08T07:39:21;15.07;;;9.07;;
16127;SDS011;8168;49.036;7.690;2023-04-08T07:41:52;16.23;;;8.43;;
16127;SDS011;8168;49.036;7.690;2023-04-08T07:44:23;14.70;;;8.23;;
16127;SDS011;8168;49.036;7.690;2023-04-08T07:46:53;15.27;;;8.03;;
16127;SDS011;8168;49.036;7.690;2023-04-08T07:49:25;12.57;;;7.83;;
16127;SDS011;8168;49.036;7.690;2023-04-08T07:51:56;12.27;;;8.07;;
16127;SDS011;8168;49.036;7.690;2023-04-08T07:54:26;13.80;;;8.53;;
16127;SDS011;8168;49.036;7.690;2023-04-08T07:56:57;11.63;;;7.87;;
16127;SDS011;8168;49.036;7.690;2023-04-08T07:59:28;14.00;;;7.77;;
16127;SDS011;8168;49.036;7.690;2023-04-08T08:02:01;10.30;;;7.47;;
16127;SDS011;8168;49.036;7.690;2023-04-08T08:04:32;12.07;;;7.17;;
16127;SDS011;8168;49.036;7.690;2023-04-08T08:07:03;10.70;;;7.30;;
16127;SDS011;8168;49.036;7.690;2023-04-08T08:09:33;11.70;;;7.10;;
16127;SDS011;8168;49.036;7.690;2023-04-08T08:12:04;12.70;;;7.13;;
16127;SDS011;8168;49.036;7.690;2023-04-08T08:14:34;11.07;;;6.67;;
16127;SDS011;8168;49.036;7.690;2023-04-08T08:17:05;12.07;;;7.60;;
16127;SDS011;8168;49.036;7.690;2023-04-08T08:19:36;14.03;;;8.40;;
16127;SDS011;8168;49.036;7.690;2023-04-08T08:22:06;10.70;;;7.40;;
16127;SDS011;8168;49.036;7.690;2023-04-08T08:24:37;10.90;;;7.40;;
16127;SDS011;8168;49.036;7.690;2023-04-08T08:27:11;11.23;;;7.57;;
16127;SDS011;8168;49.036;7.690;2023-04-08T08:29:42;10.80;;;6.20;;
16127;SDS011;8168;49.036;7.690;2023-04-08T08:32:12;11.90;;;7.00;;
16127;SDS011;8168;49.036;7.690;2023-04-08T08:34:43;13.23;;;7.60;;
16127;SDS011;8168;49.036;7.690;2023-04-08T08:37:13;10.20;;;7.50;;
16127;SDS011;8168;49.036;7.690;2023-04-08T08:39:44;16.10;;;7.07;;
16127;SDS011;8168;49.036;7.690;2023-04-08T08:42:21;13.53;;;7.67;;
16127;SDS011;8168;49.036;7.690;2023-04-08T08:44:53;11.40;;;7.43;;
16127;SDS011;8168;49.036;7.690;2023-04-08T08:47:23;11.03;;;7.00;;
16127;SDS011;8168;49.036;7.690;2023-04-08T08:49:54;11.77;;;7.17;;
16127;SDS011;8168;49.036;7.690;2023-04-08T08:52:25;10.93;;;6.47;;
16127;SDS011;8168;49.036;7.690;2023-04-08T08:54:58;9.57;;;7.03;;
16127;SDS011;8168;49.036;7.690;2023-04-08T08:57:30;10.47;;;6.73;;
16127;SDS011;8168;49.036;7.690;2023-04-08T09:00:00;10.20;;;6.30;;
16127;SDS011;8168;49.036;7.690;2023-04-08T09:02:31;8.43;;;6.17;;
16127;SDS011;8168;49.036;7.690;2023-04-08T09:05:02;9.20;;;6.47;;
16127;SDS011;8168;49.036;7.690;2023-04-08T09:07:34;12.43;;;6.60;;
16127;SDS011;8168;49.036;7.690;2023-04-08T09:10:06;10.37;;;6.50;;
16127;SDS011;8168;49.036;7.690;2023-04-08T09:12:52;11.93;;;7.67;;
16127;SDS011;8168;49.036;7.690;2023-04-08T09:15:24;11.43;;;6.67;;
16127;SDS011;8168;49.036;7.690;2023-04-08T09:17:55;10.77;;;7.03;;
16127;SDS011;8168;49.036;7.690;2023-04-08T09:20:27;9.37;;;6.77;;
16127;SDS011;8168;49.036;7.690;2023-04-08T09:23:01;7.93;;;5.73;;
16127;SDS011;8168;49.036;7.690;2023-04-08T09:25:32;11.17;;;6.67;;
16127;SDS011;8168;49.036;7.690;2023-04-08T09:28:03;10.93;;;7.07;;
16127;SDS011;8168;49.036;7.690;2023-04-08T09:30:34;9.93;;;6.23;;
16127;SDS011;8168;49.036;7.690;2023-04-08T09:33:05;10.60;;;6.93;;
16127;SDS011;8168;49.036;7.690;2023-04-08T09:35:36;10.60;;;6.27;;
16127;SDS011;8168;49.036;7.690;2023-04-08T09:38:07;8.37;;;6.17;;
16127;SDS011;8168;49.036;7.690;2023-04-08T09:40:38;9.03;;;6.20;;
16127;SDS011;8168;49.036;7.690;2023-04-08T09:43:11;8.53;;;6.27;;
16127;SDS011;8168;49.036;7.690;2023-04-08T09:45:47;8.60;;;6.33;;
16127;SDS011;8168;49.036;7.690;2023-04-08T09:48:23;9.73;;;6.47;;
16127;SDS011;8168;49.036;7.690;2023-04-08T09:50:57;8.13;;;6.30;;
16127;SDS011;8168;49.036;7.690;2023-04-08T09:53:29;10.10;;;6.43;;
16127;SDS011;8168;49.036;7.690;2023-04-08T09:56:10;9.13;;;5.83;;
16127;SDS011;8168;49.036;7.690;2023-04-08T09:58:53;7.70;;;5.77;;
16127;SDS011;8168;49.036;7.690;2023-04-08T10:01:33;10.30;;;6.80;;
16127;SDS011;8168;49.036;7.690;2023-04-08T10:04:08;9.40;;;6.20;;
16127;SDS011;8168;49.036;7.690;2023-04-08T10:06:44;9.43;;;6.67;;
16127;SDS011;8168;49.036;7.690;2023-04-08T10:09:22;9.13;;;6.80;;
16127;SDS011;8168;49.036;7.690;2023-04-08T10:11:53;9.97;;;7.10;;
16127;SDS011;8168;49.036;7.690;2023-04-08T10:14:24;8.47;;;6.77;;
16127;SDS011;8168;49.036;7.690;2023-04-08T10:19:57;9.20;;;6.50;;
16127;SDS011;8168;49.036;7.690;2023-04-08T10:27:47;7.60;;;6.23;;
16127;SDS011;8168;49.036;7.690;2023-04-08T10:33:00;7.87;;;6.10;;
16127;SDS011;8168;49.036;7.690;2023-04-08T10:35:34;6.93;;;5.83;;
16127;SDS011;8168;49.036;7.690;2023-04-08T10:38:05;7.07;;;5.50;;
16127;SDS011;8168;49.036;7.690;2023-04-08T10:40:37;11.37;;;5.83;;
16127;SDS011;8168;49.036;7.690;2023-04-08T10:43:10;6.57;;;4.93;;
16127;SDS011;8168;49.036;7.690;2023-04-08T10:45:43;6.97;;;5.80;;
16127;SDS011;8168;49.036;7.690;2023-04-08T10:50:56;16.60;;;6.03;;
16127;SDS011;8168;49.036;7.690;2023-04-08T10:56:06;8.23;;;5.67;;
16127;SDS011;8168;49.036;7.690;2023-04-08T10:58:51;8.00;;;5.83;;
16127;SDS011;8168;49.036;7.690;2023-04-08T11:01:25;7.00;;;5.77;;
16127;SDS011;8168;49.036;7.690;2023-04-08T11:03:57;7.23;;;5.77;;
16127;SDS011;8168;49.036;7.690;2023-04-08T11:06:28;7.53;;;5.80;;
16127;SDS011;8168;49.036;7.690;2023-04-08T11:09:01;10.07;;;6.10;;
16127;SDS011;8168;49.036;7.690;2023-04-08T11:11:33;9.27;;;6.57;;
16127;SDS011;8168;49.036;7.690;2023-04-08T11:14:03;13.40;;;6.60;;
16127;SDS011;8168;49.036;7.690;2023-04-08T11:16:36;9.03;;;6.57;;
16127;SDS011;8168;49.036;7.690;2023-04-08T11:19:07;6.70;;;5.43;;
16127;SDS011;8168;49.036;7.690;2023-04-08T11:21:38;9.63;;;5.83;;
16127;SDS011;8168;49.036;7.690;2023-04-08T11:24:09;7.90;;;5.63;;
16127;SDS011;8168;49.036;7.690;2023-04-08T11:26:43;5.70;;;5.10;;
16127;SDS011;8168;49.036;7.690;2023-04-08T11:29:14;7.47;;;5.30;;
16127;SDS011;8168;49.036;7.690;2023-04-08T11:31:45;7.17;;;4.90;;
16127;SDS011;8168;49.036;7.690;2023-04-08T11:34:22;6.50;;;4.67;;
16127;SDS011;8168;49.036;7.690;2023-04-08T11:36:55;6.83;;;4.83;;
16127;SDS011;8168;49.036;7.690;2023-04-08T11:39:27;6.67;;;5.23;;
16127;SDS011;8168;49.036;7.690;2023-04-08T11:41:57;8.87;;;6.23;;
16127;SDS011;8168;49.036;7.690;2023-04-08T11:44:29;7.83;;;6.10;;
16127;SDS011;8168;49.036;7.690;2023-04-08T11:47:01;9.40;;;5.53;;
16127;SDS011;8168;49.036;7.690;2023-04-08T11:49:44;5.90;;;4.90;;
16127;SDS011;8168;49.036;7.690;2023-04-08T11:52:15;6.70;;;4.70;;
16127;SDS011;8168;49.036;7.690;2023-04-08T11:54:46;15.37;;;11.03;;
16127;SDS011;8168;49.036;7.690;2023-04-08T11:57:26;17.67;;;13.27;;
16127;SDS011;8168;49.036;7.690;2023-04-08T11:59:58;7.73;;;6.33;;
16127;SDS011;8168;49.036;7.690;2023-04-08T12:02:29;10.30;;;6.40;;
16127;SDS011;8168;49.036;7.690;2023-04-08T12:05:00;13.13;;;8.30;;
16127;SDS011;8168;49.036;7.690;2023-04-08T12:07:31;7.27;;;5.80;;
16127;SDS011;8168;49.036;7.690;2023-04-08T12:10:02;6.23;;;4.50;;
16127;SDS011;8168;49.036;7.690;2023-04-08T12:12:32;10.50;;;5.60;;
16127;SDS011;8168;49.036;7.690;2023-04-08T12:15:03;7.20;;;5.23;;
16127;SDS011;8168;49.036;7.690;2023-04-08T12:17:34;6.87;;;5.13;;
16127;SDS011;8168;49.036;7.690;2023-04-08T12:20:05;6.33;;;4.20;;
16127;SDS011;8168;49.036;7.690;2023-04-08T12:22:37;6.23;;;4.93;;
16127;SDS011;8168;49.036;7.690;2023-04-08T12:25:08;5.23;;;4.03;;
16127;SDS011;8168;49.036;7.690;2023-04-08T12:27:38;4.93;;;4.40;;
16127;SDS011;8168;49.036;7.690;2023-04-08T12:30:09;8.17;;;5.00;;
16127;SDS011;8168;49.036;7.690;2023-04-08T12:32:40;6.37;;;5.30;;
16127;SDS011;8168;49.036;7.690;2023-04-08T12:35:11;6.53;;;5.10;;
16127;SDS011;8168;49.036;7.690;2023-04-08T12:37:42;7.17;;;5.57;;
16127;SDS011;8168;49.036;7.690;2023-04-08T12:40:13;8.07;;;5.93;;
16127;SDS011;8168;49.036;7.690;2023-04-08T12:42:44;8.77;;;6.93;;
16127;SDS011;8168;49.036;7.690;2023-04-08T12:45:15;10.07;;;7.77;;
16127;SDS011;8168;49.036;7.690;2023-04-08T12:47:45;8.50;;;6.87;;
16127;SDS011;8168;49.036;7.690;2023-04-08T12:50:16;9.23;;;6.80;;
16127;SDS011;8168;49.036;7.690;2023-04-08T12:52:47;11.03;;;7.60;;
16127;SDS011;8168;49.036;7.690;2023-04-08T12:55:17;9.30;;;7.83;;
16127;SDS011;8168;49.036;7.690;2023-04-08T12:57:48;10.67;;;7.57;;
16127;SDS011;8168;49.036;7.690;2023-04-08T13:00:18;10.07;;;6.67;;
16127;SDS011;8168;49.036;7.690;2023-04-08T13:02:49;10.53;;;7.53;;
16127;SDS011;8168;49.036;7.690;2023-04-08T13:05:20;8.27;;;6.63;;
16127;SDS011;8168;49.036;7.690;2023-04-08T13:07:50;10.87;;;8.00;;
16127;SDS011;8168;49.036;7.690;2023-04-08T13:10:21;10.43;;;8.37;;
16127;SDS011;8168;49.036;7.690;2023-04-08T13:12:51;10.13;;;7.80;;
16127;SDS011;8168;49.036;7.690;2023-04-08T13:15:22;14.93;;;9.67;;
16127;SDS011;8168;49.036;7.690;2023-04-08T13:17:53;12.70;;;9.27;;
16127;SDS011;8168;49.036;7.690;2023-04-08T13:20:23;14.03;;;9.53;;
16127;SDS011;8168;49.036;7.690;2023-04-08T13:22:55;9.80;;;7.63;;
16127;SDS011;8168;49.036;7.690;2023-04-08T13:25:25;9.93;;;7.37;;
16127;SDS011;8168;49.036;7.690;2023-04-08T13:27:56;8.83;;;6.77;;
16127;SDS011;8168;49.036;7.690;2023-04-08T13:30:27;10.53;;;7.53;;
16127;SDS011;8168;49.036;7.690;2023-04-08T13:32:57;12.03;;;8.93;;
16127;SDS011;8168;49.036;7.690;2023-04-08T13:35:28;11.60;;;8.93;;
16127;SDS011;8168;49.036;7.690;2023-04-08T13:37:58;9.33;;;7.93;;
16127;SDS011;8168;49.036;7.690;2023-04-08T13:40:29;8.57;;;6.83;;
16127;SDS011;8168;49.036;7.690;2023-04-08T13:43:00;10.10;;;7.27;;
16127;SDS011;8168;49.036;7.690;2023-04-08T13:45:31;11.77;;;8.47;;
16127;SDS011;8168;49.036;7.690;2023-04-08T13:48:01;8.00;;;6.20;;
16127;SDS011;8168;49.036;7.690;2023-04-08T13:50:33;10.80;;;7.83;;
16127;SDS011;8168;49.036;7.690;2023-04-08T13:53:04;9.53;;;6.37;;
16127;SDS011;8168;49.036;7.690;2023-04-08T13:55:34;8.27;;;6.87;;
16127;SDS011;8168;49.036;7.690;2023-04-08T13:58:05;8.97;;;6.43;;
16127;SDS011;8168;49.036;7.690;2023-04-08T14:00:36;7.47;;;6.50;;
16127;SDS011;8168;49.036;7.690;2023-04-08T14:03:06;9.43;;;6.50;;
16127;SDS011;8168;49.036;7.690;2023-04-08T14:05:37;8.00;;;6.47;;
16127;SDS011;8168;49.036;7.690;2023-04-08T14:08:07;15.67;;;8.63;;
16127;SDS011;8168;49.036;7.690;2023-04-08T14:10:38;8.07;;;6.07;;
16127;SDS011;8168;49.036;7.690;2023-04-08T14:13:10;8.37;;;6.10;;
16127;SDS011;8168;49.036;7.690;2023-04-08T14:15:41;10.13;;;6.87;;
16127;SDS011;8168;49.036;7.690;2023-04-08T14:18:11;9.87;;;6.80;;
16127;SDS011;8168;49.036;7.690;2023-04-08T14:20:42;9.23;;;6.90;;
16127;SDS011;8168;49.036;7.690;2023-04-08T14:23:13;8.17;;;6.17;;
16127;SDS011;8168;49.036;7.690;2023-04-08T14:25:43;8.97;;;7.03;;
16127;SDS011;8168;49.036;7.690;2023-04-08T14:28:14;9.90;;;6.30;;
16127;SDS011;8168;49.036;7.690;2023-04-08T14:30:45;9.47;;;6.73;;
16127;SDS011;8168;49.036;7.690;2023-04-08T14:33:16;9.23;;;7.57;;
16127;SDS011;8168;49.036;7.690;2023-04-08T14:35:47;8.70;;;6.50;;
16127;SDS011;8168;49.036;7.690;2023-04-08T14:38:18;11.03;;;7.67;;
16127;SDS011;8168;49.036;7.690;2023-04-08T14:40:50;16.83;;;7.97;;
16127;SDS011;8168;49.036;7.690;2023-04-08T14:43:21;14.10;;;8.80;;
16127;SDS011;8168;49.036;7.690;2023-04-08T14:45:51;13.50;;;9.20;;
16127;SDS011;8168;49.036;7.690;2023-04-08T14:48:22;9.83;;;7.50;;
16127;SDS011;8168;49.036;7.690;2023-04-08T14:50:55;11.00;;;7.17;;
16127;SDS011;8168;49.036;7.690;2023-04-08T14:53:26;12.17;;;8.73;;
16127;SDS011;8168;49.036;7.690;2023-04-08T14:55:56;10.97;;;7.80;;
16127;SDS011;8168;49.036;7.690;2023-04-08T14:58:27;8.77;;;7.47;;
16127;SDS011;8168;49.036;7.690;2023-04-08T15:00:58;14.50;;;7.93;;
16127;SDS011;8168;49.036;7.690;2023-04-08T15:03:28;10.97;;;7.47;;
16127;SDS011;8168;49.036;7.690;2023-04-08T15:05:59;12.10;;;7.47;;
16127;SDS011;8168;49.036;7.690;2023-04-08T15:08:30;19.80;;;9.33;;
16127;SDS011;8168;49.036;7.690;2023-04-08T15:11:01;13.83;;;8.53;;
16127;SDS011;8168;49.036;7.690;2023-04-08T15:13:31;10.60;;;7.90;;
16127;SDS011;8168;49.036;7.690;2023-04-08T15:16:02;12.03;;;8.67;;
16127;SDS011;8168;49.036;7.690;2023-04-08T15:18:32;14.03;;;7.50;;
16127;SDS011;8168;49.036;7.690;2023-04-08T15:21:03;12.17;;;7.70;;
16127;SDS011;8168;49.036;7.690;2023-04-08T15:23:34;10.83;;;6.57;;
16127;SDS011;8168;49.036;7.690;2023-04-08T15:26:05;13.83;;;7.87;;
16127;SDS011;8168;49.036;7.690;2023-04-08T15:28:36;47.47;;;13.07;;
16127;SDS011;8168;49.036;7.690;2023-04-08T15:31:07;10.80;;;7.80;;
16127;SDS011;8168;49.036;7.690;2023-04-08T15:33:38;18.17;;;9.10;;
16127;SDS011;8168;49.036;7.690;2023-04-08T15:36:10;8.73;;;6.83;;
16127;SDS011;8168;49.036;7.690;2023-04-08T15:38:41;10.23;;;5.67;;
16127;SDS011;8168;49.036;7.690;2023-04-08T15:41:15;7.70;;;6.10;;
16127;SDS011;8168;49.036;7.690;2023-04-08T15:43:50;8.83;;;6.70;;
16127;SDS011;8168;49.036;7.690;2023-04-08T15:46:22;7.33;;;5.57;;
16127;SDS011;8168;49.036;7.690;2023-04-08T15:48:53;8.90;;;5.63;;